sensor_id;sensor_type;location;lat;lon;timestamp;P1;durP1;ratioP1;P2;durP2;ratioP2
51194;SDS011;37259;49.972;19.850;2024-02-28T00:00:15;24;;;16.2;;
51194;SDS011;37259;49.972;19.850;2024-02-28T00:01:15;24;;;16.2;;
51194;SDS011;37259;49.972;19.850;2024-02-28T00:02:15;24;;;16.2;;
51194;SDS011;37259;49.972;19.850;2024-02-28T00:03:15;24;;;16.2;;
51194;SDS011;37259;49.972;19.850;2024-02-28T00:04:15;24;;;16.2;;
51194;SDS011;37259;49.972;19.850;2024-02-28T00:05:15;24;;;16.2;;
51194;SDS011;37259;49.972;19.850;2024-02-28T00:06:15;24;;;16.2;;
51194;SDS011;37259;49.972;19.850;2024-02-28T00:07:15;24;;;16.2;;
51194;SDS011;37259;49.972;19.850;2024-02-28T00:08:15;24;;;16.2;;
51194;SDS011;37259;49.972;19.850;2024-02-28T00:09:15;24.7;;;15.7;;
51194;SDS011;37259;49.972;19.850;2024-02-28T00:10:15;24.7;;;15.7;;
51194;SDS011;37259;49.972;19.850;2024-02-28T00:11:15;24.7;;;15.7;;
51194;SDS011;37259;49.972;19.850;2024-02-28T00:12:15;24.7;;;15.7;;
51194;SDS011;37259;49.972;19.850;2024-02-28T00:13:15;24.7;;;15.7;;
51194;SDS011;37259;49.972;19.850;2024-02-28T00:14:15;24.7;;;15.7;;
51194;SDS011;37259;49.972;19.850;2024-02-28T00:15:15;24.7;;;15.7;;
51194;SDS011;37259;49.972;19.850;2024-02-28T00:16:15;24.7;;;15.7;;
51194;SDS011;37259;49.972;19.850;2024-02-28T00:17:15;24.7;;;15.7;;
51194;SDS011;37259;49.972;19.850;2024-02-28T00:18:15;24.7;;;15.7;;
51194;SDS011;37259;49.972;19.850;2024-02-28T00:19:15;24.7;;;15.7;;
51194;SDS011;37259;49.972;19.850;2024-02-28T00:20:15;24.7;;;15.7;;
51194;SDS011;37259;49.972;19.850;2024-02-28T00:21:15;24.7;;;15.7;;
51194;SDS011;37259;49.972;19.850;2024-02-28T00:22:15;24.7;;;15.7;;
51194;SDS011;37259;49.972;19.850;2024-02-28T00:23:16;24.7;;;15.7;;
51194;SDS011;37259;49.972;19.850;2024-02-28T00:24:15;24.7;;;15.7;;
51194;SDS011;37259;49.972;19.850;2024-02-28T00:25:16;24.7;;;15.7;;
51194;SDS011;37259;49.972;19.850;2024-02-28T00:26:15;24.7;;;15.7;;
51194;SDS011;37259;49.972;19.850;2024-02-28T00:27:15;24.7;;;15.7;;
51194;SDS011;37259;49.972;19.850;2024-02-28T00:28:15;24.7;;;15.7;;
51194;SDS011;37259;49.972;19.850;2024-02-28T00:29:15;24.7;;;15.7;;
51194;SDS011;37259;49.972;19.850;2024-02-28T00:30:16;24.7;;;15.7;;
51194;SDS011;37259;49.972;19.850;2024-02-28T00:31:15;24.7;;;15.7;;
51194;SDS011;37259;49.972;19.850;2024-02-28T00:32:15;24.7;;;15.7;;
51194;SDS011;37259;49.972;19.850;2024-02-28T00:33:15;24.7;;;15.7;;
51194;SDS011;37259;49.972;19.850;2024-02-28T00:34:15;24.7;;;15.7;;
51194;SDS011;37259;49.972;19.850;2024-02-28T00:35:15;24.7;;;15.7;;
51194;SDS011;37259;49.972;19.850;2024-02-28T00:36:15;24.7;;;15.7;;
51194;SDS011;37259;49.972;19.850;2024-02-28T00:37:15;24.7;;;15.7;;
51194;SDS011;37259;49.972;19.850;2024-02-28T00:38:15;24.7;;;15.7;;
51194;SDS011;37259;49.972;19.850;2024-02-28T00:39:15;19.2;;;14.8;;
51194;SDS011;37259;49.972;19.850;2024-02-28T00:40:15;19.2;;;14.8;;
51194;SDS011;37259;49.972;19.850;2024-02-28T00:41:16;19.2;;;14.8;;
51194;SDS011;37259;49.972;19.850;2024-02-28T00:42:15;19.2;;;14.8;;
51194;SDS011;37259;49.972;19.850;2024-02-28T00:43:15;19.2;;;14.8;;
51194;SDS011;37259;49.972;19.850;2024-02-28T00:44:15;19.2;;;14.8;;
51194;SDS011;37259;49.972;19.850;2024-02-28T00:45:15;19.2;;;14.8;;
51194;SDS011;37259;49.972;19.850;2024-02-28T00:46:15;19.2;;;14.8;;
51194;SDS011;37259;49.972;19.850;2024-02-28T00:47:16;19.2;;;14.8;;
51194;SDS011;37259;49.972;19.850;2024-02-28T00:48:15;19.2;;;14.8;;
51194;SDS011;37259;49.972;19.850;2024-02-28T00:49:15;19.2;;;14.8;;
51194;SDS011;37259;49.972;19.850;2024-02-28T00:50:15;19.2;;;14.8;;
51194;SDS011;37259;49.972;19.850;2024-02-28T00:51:15;19.2;;;14.8;;
51194;SDS011;37259;49.972;19.850;2024-02-28T00:52:15;19.2;;;14.8;;
51194;SDS011;37259;49.972;19.850;2024-02-28T00:53:15;19.2;;;14.8;;
51194;SDS011;37259;49.972;19.850;2024-02-28T00:54:15;19.2;;;14.8;;
51194;SDS011;37259;49.972;19.850;2024-02-28T00:55:15;19.2;;;14.8;;
51194;SDS011;37259;49.972;19.850;2024-02-28T00:56:15;19.2;;;14.8;;
51194;SDS011;37259;49.972;19.850;2024-02-28T00:57:15;19.2;;;14.8;;
51194;SDS011;37259;49.972;19.850;2024-02-28T00:58:15;19.2;;;14.8;;
51194;SDS011;37259;49.972;19.850;2024-02-28T00:59:15;19.2;;;14.8;;
51194;SDS011;37259;49.972;19.850;2024-02-28T01:00:16;19.2;;;14.8;;
51194;SDS011;37259;49.972;19.850;2024-02-28T01:01:15;19.2;;;14.8;;
51194;SDS011;37259;49.972;19.850;2024-02-28T01:02:15;19.2;;;14.8;;
51194;SDS011;37259;49.972;19.850;2024-02-28T01:03:16;19.2;;;14.8;;
51194;SDS011;37259;49.972;19.850;2024-02-28T01:04:15;19.2;;;14.8;;
51194;SDS011;37259;49.972;19.850;2024-02-28T01:05:15;19.2;;;14.8;;
51194;SDS011;37259;49.972;19.850;2024-02-28T01:06:15;19.2;;;14.8;;
51194;SDS011;37259;49.972;19.850;2024-02-28T01:07:15;19.2;;;14.8;;
51194;SDS011;37259;49.972;19.850;2024-02-28T01:08:15;19.2;;;14.8;;
51194;SDS011;37259;49.972;19.850;2024-02-28T01:09:16;20.5;;;14.9;;
51194;SDS011;37259;49.972;19.850;2024-02-28T01:10:15;20.5;;;14.9;;
51194;SDS011;37259;49.972;19.850;2024-02-28T01:11:15;20.5;;;14.9;;
51194;SDS011;37259;49.972;19.850;2024-02-28T01:12:15;20.5;;;14.9;;
51194;SDS011;37259;49.972;19.850;2024-02-28T01:13:16;20.5;;;14.9;;
51194;SDS011;37259;49.972;19.850;2024-02-28T01:14:15;20.5;;;14.9;;
51194;SDS011;37259;49.972;19.850;2024-02-28T01:15:18;20.5;;;14.9;;
51194;SDS011;37259;49.972;19.850;2024-02-28T01:16:15;20.5;;;14.9;;
51194;SDS011;37259;49.972;19.850;2024-02-28T01:17:15;20.5;;;14.9;;
51194;SDS011;37259;49.972;19.850;2024-02-28T01:18:15;20.5;;;14.9;;
51194;SDS011;37259;49.972;19.850;2024-02-28T01:19:15;20.5;;;14.9;;
51194;SDS011;37259;49.972;19.850;2024-02-28T01:20:15;20.5;;;14.9;;
51194;SDS011;37259;49.972;19.850;2024-02-28T01:21:15;20.5;;;14.9;;
51194;SDS011;37259;49.972;19.850;2024-02-28T01:22:15;20.5;;;14.9;;
51194;SDS011;37259;49.972;19.850;2024-02-28T01:23:15;20.5;;;14.9;;
51194;SDS011;37259;49.972;19.850;2024-02-28T01:24:15;20.5;;;14.9;;
51194;SDS011;37259;49.972;19.850;2024-02-28T01:25:15;20.5;;;14.9;;
51194;SDS011;37259;49.972;19.850;2024-02-28T01:26:15;20.5;;;14.9;;
51194;SDS011;37259;49.972;19.850;2024-02-28T01:27:15;20.5;;;14.9;;
51194;SDS011;37259;49.972;19.850;2024-02-28T01:28:15;20.5;;;14.9;;
51194;SDS011;37259;49.972;19.850;2024-02-28T01:29:15;20.5;;;14.9;;
51194;SDS011;37259;49.972;19.850;2024-02-28T01:30:16;20.5;;;14.9;;
51194;SDS011;37259;49.972;19.850;2024-02-28T01:31:15;20.5;;;14.9;;
51194;SDS011;37259;49.972;19.850;2024-02-28T01:32:16;20.5;;;14.9;;
51194;SDS011;37259;49.972;19.850;2024-02-28T01:33:15;20.5;;;14.9;;
51194;SDS011;37259;49.972;19.850;2024-02-28T01:34:15;20.5;;;14.9;;
51194;SDS011;37259;49.972;19.850;2024-02-28T01:35:15;20.5;;;14.9;;
51194;SDS011;37259;49.972;19.850;2024-02-28T01:36:15;20.5;;;14.9;;
51194;SDS011;37259;49.972;19.850;2024-02-28T01:37:15;20.5;;;14.9;;
51194;SDS011;37259;49.972;19.850;2024-02-28T01:38:15;20.5;;;14.9;;
51194;SDS011;37259;49.972;19.850;2024-02-28T01:39:15;23.2;;;13.7;;
51194;SDS011;37259;49.972;19.850;2024-02-28T01:40:15;23.2;;;13.7;;
51194;SDS011;37259;49.972;19.850;2024-02-28T01:41:15;23.2;;;13.7;;
51194;SDS011;37259;49.972;19.850;2024-02-28T01:42:15;23.2;;;13.7;;
51194;SDS011;37259;49.972;19.850;2024-02-28T01:43:15;23.2;;;13.7;;
51194;SDS011;37259;49.972;19.850;2024-02-28T01:44:16;23.2;;;13.7;;
51194;SDS011;37259;49.972;19.850;2024-02-28T01:45:16;23.2;;;13.7;;
51194;SDS011;37259;49.972;19.850;2024-02-28T01:46:20;23.2;;;13.7;;
51194;SDS011;37259;49.972;19.850;2024-02-28T01:47:16;23.2;;;13.7;;
51194;SDS011;37259;49.972;19.850;2024-02-28T01:48:16;23.2;;;13.7;;
51194;SDS011;37259;49.972;19.850;2024-02-28T01:49:16;23.2;;;13.7;;
51194;SDS011;37259;49.972;19.850;2024-02-28T01:50:15;23.2;;;13.7;;
51194;SDS011;37259;49.972;19.850;2024-02-28T01:51:16;23.2;;;13.7;;
51194;SDS011;37259;49.972;19.850;2024-02-28T01:52:16;23.2;;;13.7;;
51194;SDS011;37259;49.972;19.850;2024-02-28T01:53:15;23.2;;;13.7;;
51194;SDS011;37259;49.972;19.850;2024-02-28T01:54:16;23.2;;;13.7;;
51194;SDS011;37259;49.972;19.850;2024-02-28T01:55:16;23.2;;;13.7;;
51194;SDS011;37259;49.972;19.850;2024-02-28T01:56:16;23.2;;;13.7;;
51194;SDS011;37259;49.972;19.850;2024-02-28T01:57:16;23.2;;;13.7;;
51194;SDS011;37259;49.972;19.850;2024-02-28T01:58:15;23.2;;;13.7;;
51194;SDS011;37259;49.972;19.850;2024-02-28T01:59:15;23.2;;;13.7;;
51194;SDS011;37259;49.972;19.850;2024-02-28T02:00:15;23.2;;;13.7;;
51194;SDS011;37259;49.972;19.850;2024-02-28T02:01:16;23.2;;;13.7;;
51194;SDS011;37259;49.972;19.850;2024-02-28T02:02:15;23.2;;;13.7;;
51194;SDS011;37259;49.972;19.850;2024-02-28T02:03:15;23.2;;;13.7;;
51194;SDS011;37259;49.972;19.850;2024-02-28T02:04:16;23.2;;;13.7;;
51194;SDS011;37259;49.972;19.850;2024-02-28T02:05:15;23.2;;;13.7;;
51194;SDS011;37259;49.972;19.850;2024-02-28T02:06:17;23.2;;;13.7;;
51194;SDS011;37259;49.972;19.850;2024-02-28T02:07:15;23.2;;;13.7;;
51194;SDS011;37259;49.972;19.850;2024-02-28T02:08:15;23.2;;;13.7;;
51194;SDS011;37259;49.972;19.850;2024-02-28T02:09:16;25.8;;;17.3;;
51194;SDS011;37259;49.972;19.850;2024-02-28T02:10:16;25.8;;;17.3;;
51194;SDS011;37259;49.972;19.850;2024-02-28T02:11:16;25.8;;;17.3;;
51194;SDS011;37259;49.972;19.850;2024-02-28T02:12:15;25.8;;;17.3;;
51194;SDS011;37259;49.972;19.850;2024-02-28T02:13:15;25.8;;;17.3;;
51194;SDS011;37259;49.972;19.850;2024-02-28T02:14:16;25.8;;;17.3;;
51194;SDS011;37259;49.972;19.850;2024-02-28T02:15:15;25.8;;;17.3;;
51194;SDS011;37259;49.972;19.850;2024-02-28T02:16:16;25.8;;;17.3;;
51194;SDS011;37259;49.972;19.850;2024-02-28T02:17:15;25.8;;;17.3;;
51194;SDS011;37259;49.972;19.850;2024-02-28T02:18:15;25.8;;;17.3;;
51194;SDS011;37259;49.972;19.850;2024-02-28T02:19:16;25.8;;;17.3;;
51194;SDS011;37259;49.972;19.850;2024-02-28T02:20:15;25.8;;;17.3;;
51194;SDS011;37259;49.972;19.850;2024-02-28T02:21:17;25.8;;;17.3;;
51194;SDS011;37259;49.972;19.850;2024-02-28T02:22:16;25.8;;;17.3;;
51194;SDS011;37259;49.972;19.850;2024-02-28T02:23:16;25.8;;;17.3;;
51194;SDS011;37259;49.972;19.850;2024-02-28T02:24:16;25.8;;;17.3;;
51194;SDS011;37259;49.972;19.850;2024-02-28T02:25:15;25.8;;;17.3;;
51194;SDS011;37259;49.972;19.850;2024-02-28T02:26:15;25.8;;;17.3;;
51194;SDS011;37259;49.972;19.850;2024-02-28T02:27:16;25.8;;;17.3;;
51194;SDS011;37259;49.972;19.850;2024-02-28T02:28:15;25.8;;;17.3;;
51194;SDS011;37259;49.972;19.850;2024-02-28T02:29:15;25.8;;;17.3;;
51194;SDS011;37259;49.972;19.850;2024-02-28T02:30:16;25.8;;;17.3;;
51194;SDS011;37259;49.972;19.850;2024-02-28T02:31:16;25.8;;;17.3;;
51194;SDS011;37259;49.972;19.850;2024-02-28T02:32:15;25.8;;;17.3;;
51194;SDS011;37259;49.972;19.850;2024-02-28T02:33:15;25.8;;;17.3;;
51194;SDS011;37259;49.972;19.850;2024-02-28T02:34:15;25.8;;;17.3;;
51194;SDS011;37259;49.972;19.850;2024-02-28T02:35:16;25.8;;;17.3;;
51194;SDS011;37259;49.972;19.850;2024-02-28T02:36:15;25.8;;;17.3;;
51194;SDS011;37259;49.972;19.850;2024-02-28T02:37:15;25.8;;;17.3;;
51194;SDS011;37259;49.972;19.850;2024-02-28T02:38:16;25.8;;;17.3;;
51194;SDS011;37259;49.972;19.850;2024-02-28T02:39:16;32.3;;;22.5;;
51194;SDS011;37259;49.972;19.850;2024-02-28T02:40:15;32.3;;;22.5;;
51194;SDS011;37259;49.972;19.850;2024-02-28T02:41:15;32.3;;;22.5;;
51194;SDS011;37259;49.972;19.850;2024-02-28T02:42:15;32.3;;;22.5;;
51194;SDS011;37259;49.972;19.850;2024-02-28T02:43:16;32.3;;;22.5;;
51194;SDS011;37259;49.972;19.850;2024-02-28T02:44:16;32.3;;;22.5;;
51194;SDS011;37259;49.972;19.850;2024-02-28T02:45:16;32.3;;;22.5;;
51194;SDS011;37259;49.972;19.850;2024-02-28T02:46:16;32.3;;;22.5;;
51194;SDS011;37259;49.972;19.850;2024-02-28T02:47:16;32.3;;;22.5;;
51194;SDS011;37259;49.972;19.850;2024-02-28T02:48:16;32.3;;;22.5;;
51194;SDS011;37259;49.972;19.850;2024-02-28T02:49:16;32.3;;;22.5;;
51194;SDS011;37259;49.972;19.850;2024-02-28T02:50:15;32.3;;;22.5;;
51194;SDS011;37259;49.972;19.850;2024-02-28T02:51:15;32.3;;;22.5;;
51194;SDS011;37259;49.972;19.850;2024-02-28T02:52:15;32.3;;;22.5;;
51194;SDS011;37259;49.972;19.850;2024-02-28T02:53:15;32.3;;;22.5;;
51194;SDS011;37259;49.972;19.850;2024-02-28T02:54:15;32.3;;;22.5;;
51194;SDS011;37259;49.972;19.850;2024-02-28T02:55:15;32.3;;;22.5;;
51194;SDS011;37259;49.972;19.850;2024-02-28T02:56:15;32.3;;;22.5;;
51194;SDS011;37259;49.972;19.850;2024-02-28T02:57:15;32.3;;;22.5;;
51194;SDS011;37259;49.972;19.850;2024-02-28T02:58:16;32.3;;;22.5;;
51194;SDS011;37259;49.972;19.850;2024-02-28T02:59:15;32.3;;;22.5;;
51194;SDS011;37259;49.972;19.850;2024-02-28T03:00:16;32.3;;;22.5;;
51194;SDS011;37259;49.972;19.850;2024-02-28T03:01:16;32.3;;;22.5;;
51194;SDS011;37259;49.972;19.850;2024-02-28T03:02:16;32.3;;;22.5;;
51194;SDS011;37259;49.972;19.850;2024-02-28T03:03:16;32.3;;;22.5;;
51194;SDS011;37259;49.972;19.850;2024-02-28T03:04:16;32.3;;;22.5;;
51194;SDS011;37259;49.972;19.850;2024-02-28T03:05:15;32.3;;;22.5;;
51194;SDS011;37259;49.972;19.850;2024-02-28T03:06:16;32.3;;;22.5;;
51194;SDS011;37259;49.972;19.850;2024-02-28T03:07:15;32.3;;;22.5;;
51194;SDS011;37259;49.972;19.850;2024-02-28T03:08:15;32.3;;;22.5;;
51194;SDS011;37259;49.972;19.850;2024-02-28T03:09:15;30.7;;;19.4;;
51194;SDS011;37259;49.972;19.850;2024-02-28T03:10:16;30.7;;;19.4;;
51194;SDS011;37259;49.972;19.850;2024-02-28T03:11:15;30.7;;;19.4;;
51194;SDS011;37259;49.972;19.850;2024-02-28T03:12:15;30.7;;;19.4;;
51194;SDS011;37259;49.972;19.850;2024-02-28T03:13:15;30.7;;;19.4;;
51194;SDS011;37259;49.972;19.850;2024-02-28T03:14:15;30.7;;;19.4;;
51194;SDS011;37259;49.972;19.850;2024-02-28T03:15:15;30.7;;;19.4;;
51194;SDS011;37259;49.972;19.850;2024-02-28T03:16:16;30.7;;;19.4;;
51194;SDS011;37259;49.972;19.850;2024-02-28T03:17:16;30.7;;;19.4;;
51194;SDS011;37259;49.972;19.850;2024-02-28T03:18:15;30.7;;;19.4;;
51194;SDS011;37259;49.972;19.850;2024-02-28T03:19:16;30.7;;;19.4;;
51194;SDS011;37259;49.972;19.850;2024-02-28T03:20:15;30.7;;;19.4;;
51194;SDS011;37259;49.972;19.850;2024-02-28T03:21:16;30.7;;;19.4;;
51194;SDS011;37259;49.972;19.850;2024-02-28T03:22:15;30.7;;;19.4;;
51194;SDS011;37259;49.972;19.850;2024-02-28T03:23:16;30.7;;;19.4;;
51194;SDS011;37259;49.972;19.850;2024-02-28T03:24:16;30.7;;;19.4;;
51194;SDS011;37259;49.972;19.850;2024-02-28T03:25:16;30.7;;;19.4;;
51194;SDS011;37259;49.972;19.850;2024-02-28T03:26:16;30.7;;;19.4;;
51194;SDS011;37259;49.972;19.850;2024-02-28T03:27:15;30.7;;;19.4;;
51194;SDS011;37259;49.972;19.850;2024-02-28T03:28:15;30.7;;;19.4;;
51194;SDS011;37259;49.972;19.850;2024-02-28T03:29:16;30.7;;;19.4;;
51194;SDS011;37259;49.972;19.850;2024-02-28T03:30:16;30.7;;;19.4;;
51194;SDS011;37259;49.972;19.850;2024-02-28T03:31:16;30.7;;;19.4;;
51194;SDS011;37259;49.972;19.850;2024-02-28T03:32:16;30.7;;;19.4;;
51194;SDS011;37259;49.972;19.850;2024-02-28T03:33:16;30.7;;;19.4;;
51194;SDS011;37259;49.972;19.850;2024-02-28T03:34:15;30.7;;;19.4;;
51194;SDS011;37259;49.972;19.850;2024-02-28T03:35:16;30.7;;;19.4;;
51194;SDS011;37259;49.972;19.850;2024-02-28T03:36:15;30.7;;;19.4;;
51194;SDS011;37259;49.972;19.850;2024-02-28T03:37:16;30.7;;;19.4;;
51194;SDS011;37259;49.972;19.850;2024-02-28T03:38:15;30.7;;;19.4;;
51194;SDS011;37259;49.972;19.850;2024-02-28T03:39:16;25.1;;;15.9;;
51194;SDS011;37259;49.972;19.850;2024-02-28T03:40:15;25.1;;;15.9;;
51194;SDS011;37259;49.972;19.850;2024-02-28T03:41:15;25.1;;;15.9;;
51194;SDS011;37259;49.972;19.850;2024-02-28T03:42:16;25.1;;;15.9;;
51194;SDS011;37259;49.972;19.850;2024-02-28T03:43:15;25.1;;;15.9;;
51194;SDS011;37259;49.972;19.850;2024-02-28T03:44:15;25.1;;;15.9;;
51194;SDS011;37259;49.972;19.850;2024-02-28T03:45:16;25.1;;;15.9;;
51194;SDS011;37259;49.972;19.850;2024-02-28T03:46:15;25.1;;;15.9;;
51194;SDS011;37259;49.972;19.850;2024-02-28T03:47:15;25.1;;;15.9;;
51194;SDS011;37259;49.972;19.850;2024-02-28T03:48:15;25.1;;;15.9;;
51194;SDS011;37259;49.972;19.850;2024-02-28T03:49:15;25.1;;;15.9;;
51194;SDS011;37259;49.972;19.850;2024-02-28T03:50:16;25.1;;;15.9;;
51194;SDS011;37259;49.972;19.850;2024-02-28T03:51:16;25.1;;;15.9;;
51194;SDS011;37259;49.972;19.850;2024-02-28T03:52:16;25.1;;;15.9;;
51194;SDS011;37259;49.972;19.850;2024-02-28T03:53:16;25.1;;;15.9;;
51194;SDS011;37259;49.972;19.850;2024-02-28T03:54:17;25.1;;;15.9;;
51194;SDS011;37259;49.972;19.850;2024-02-28T03:55:15;25.1;;;15.9;;
51194;SDS011;37259;49.972;19.850;2024-02-28T03:56:21;25.1;;;15.9;;
51194;SDS011;37259;49.972;19.850;2024-02-28T03:57:16;25.1;;;15.9;;
51194;SDS011;37259;49.972;19.850;2024-02-28T03:58:16;25.1;;;15.9;;
51194;SDS011;37259;49.972;19.850;2024-02-28T03:59:15;25.1;;;15.9;;
51194;SDS011;37259;49.972;19.850;2024-02-28T04:00:16;25.1;;;15.9;;
51194;SDS011;37259;49.972;19.850;2024-02-28T04:01:16;25.1;;;15.9;;
51194;SDS011;37259;49.972;19.850;2024-02-28T04:02:16;25.1;;;15.9;;
51194;SDS011;37259;49.972;19.850;2024-02-28T04:03:15;25.1;;;15.9;;
51194;SDS011;37259;49.972;19.850;2024-02-28T04:04:16;25.1;;;15.9;;
51194;SDS011;37259;49.972;19.850;2024-02-28T04:05:16;25.1;;;15.9;;
51194;SDS011;37259;49.972;19.850;2024-02-28T04:06:16;25.1;;;15.9;;
51194;SDS011;37259;49.972;19.850;2024-02-28T04:07:16;25.1;;;15.9;;
51194;SDS011;37259;49.972;19.850;2024-02-28T04:08:15;25.1;;;15.9;;
51194;SDS011;37259;49.972;19.850;2024-02-28T04:09:16;25.4;;;18.2;;
51194;SDS011;37259;49.972;19.850;2024-02-28T04:10:15;25.4;;;18.2;;
51194;SDS011;37259;49.972;19.850;2024-02-28T04:11:15;25.4;;;18.2;;
51194;SDS011;37259;49.972;19.850;2024-02-28T04:12:15;25.4;;;18.2;;
51194;SDS011;37259;49.972;19.850;2024-02-28T04:13:16;25.4;;;18.2;;
51194;SDS011;37259;49.972;19.850;2024-02-28T04:14:16;25.4;;;18.2;;
51194;SDS011;37259;49.972;19.850;2024-02-28T04:15:15;25.4;;;18.2;;
51194;SDS011;37259;49.972;19.850;2024-02-28T04:16:17;25.4;;;18.2;;
51194;SDS011;37259;49.972;19.850;2024-02-28T04:17:16;25.4;;;18.2;;
51194;SDS011;37259;49.972;19.850;2024-02-28T04:18:16;25.4;;;18.2;;
51194;SDS011;37259;49.972;19.850;2024-02-28T04:19:16;25.4;;;18.2;;
51194;SDS011;37259;49.972;19.850;2024-02-28T04:20:16;25.4;;;18.2;;
51194;SDS011;37259;49.972;19.850;2024-02-28T04:21:16;25.4;;;18.2;;
51194;SDS011;37259;49.972;19.850;2024-02-28T04:22:16;25.4;;;18.2;;
51194;SDS011;37259;49.972;19.850;2024-02-28T04:23:16;25.4;;;18.2;;
51194;SDS011;37259;49.972;19.850;2024-02-28T04:24:16;25.4;;;18.2;;
51194;SDS011;37259;49.972;19.850;2024-02-28T04:25:16;25.4;;;18.2;;
51194;SDS011;37259;49.972;19.850;2024-02-28T04:26:16;25.4;;;18.2;;
51194;SDS011;37259;49.972;19.850;2024-02-28T04:27:16;25.4;;;18.2;;
51194;SDS011;37259;49.972;19.850;2024-02-28T04:28:16;25.4;;;18.2;;
51194;SDS011;37259;49.972;19.850;2024-02-28T04:29:16;25.4;;;18.2;;
51194;SDS011;37259;49.972;19.850;2024-02-28T04:30:16;25.4;;;18.2;;
51194;SDS011;37259;49.972;19.850;2024-02-28T04:31:15;25.4;;;18.2;;
51194;SDS011;37259;49.972;19.850;2024-02-28T04:32:16;25.4;;;18.2;;
51194;SDS011;37259;49.972;19.850;2024-02-28T04:33:16;25.4;;;18.2;;
51194;SDS011;37259;49.972;19.850;2024-02-28T04:34:16;25.4;;;18.2;;
51194;SDS011;37259;49.972;19.850;2024-02-28T04:35:15;25.4;;;18.2;;
51194;SDS011;37259;49.972;19.850;2024-02-28T04:36:16;25.4;;;18.2;;
51194;SDS011;37259;49.972;19.850;2024-02-28T04:37:16;25.4;;;18.2;;
51194;SDS011;37259;49.972;19.850;2024-02-28T04:38:16;25.4;;;18.2;;
51194;SDS011;37259;49.972;19.850;2024-02-28T04:39:15;28.8;;;18.5;;
51194;SDS011;37259;49.972;19.850;2024-02-28T04:40:16;28.8;;;18.5;;
51194;SDS011;37259;49.972;19.850;2024-02-28T04:41:16;28.8;;;18.5;;
51194;SDS011;37259;49.972;19.850;2024-02-28T04:42:16;28.8;;;18.5;;
51194;SDS011;37259;49.972;19.850;2024-02-28T04:43:16;28.8;;;18.5;;
51194;SDS011;37259;49.972;19.850;2024-02-28T04:44:16;28.8;;;18.5;;
51194;SDS011;37259;49.972;19.850;2024-02-28T04:45:16;28.8;;;18.5;;
51194;SDS011;37259;49.972;19.850;2024-02-28T04:46:16;28.8;;;18.5;;
51194;SDS011;37259;49.972;19.850;2024-02-28T04:47:16;28.8;;;18.5;;
51194;SDS011;37259;49.972;19.850;2024-02-28T04:48:15;28.8;;;18.5;;
51194;SDS011;37259;49.972;19.850;2024-02-28T04:49:16;28.8;;;18.5;;
51194;SDS011;37259;49.972;19.850;2024-02-28T04:50:15;28.8;;;18.5;;
51194;SDS011;37259;49.972;19.850;2024-02-28T04:51:16;28.8;;;18.5;;
51194;SDS011;37259;49.972;19.850;2024-02-28T04:52:16;28.8;;;18.5;;
51194;SDS011;37259;49.972;19.850;2024-02-28T04:53:16;28.8;;;18.5;;
51194;SDS011;37259;49.972;19.850;2024-02-28T04:54:16;28.8;;;18.5;;
51194;SDS011;37259;49.972;19.850;2024-02-28T04:55:16;28.8;;;18.5;;
51194;SDS011;37259;49.972;19.850;2024-02-28T04:56:16;28.8;;;18.5;;
51194;SDS011;37259;49.972;19.850;2024-02-28T04:57:16;28.8;;;18.5;;
51194;SDS011;37259;49.972;19.850;2024-02-28T04:58:16;28.8;;;18.5;;
51194;SDS011;37259;49.972;19.850;2024-02-28T04:59:16;28.8;;;18.5;;
51194;SDS011;37259;49.972;19.850;2024-02-28T05:00:16;28.8;;;18.5;;
51194;SDS011;37259;49.972;19.850;2024-02-28T05:01:16;28.8;;;18.5;;
51194;SDS011;37259;49.972;19.850;2024-02-28T05:02:15;28.8;;;18.5;;
51194;SDS011;37259;49.972;19.850;2024-02-28T05:03:15;28.8;;;18.5;;
51194;SDS011;37259;49.972;19.850;2024-02-28T05:04:16;28.8;;;18.5;;
51194;SDS011;37259;49.972;19.850;2024-02-28T05:05:16;28.8;;;18.5;;
51194;SDS011;37259;49.972;19.850;2024-02-28T05:06:16;28.8;;;18.5;;
51194;SDS011;37259;49.972;19.850;2024-02-28T05:07:16;28.8;;;18.5;;
51194;SDS011;37259;49.972;19.850;2024-02-28T05:08:17;28.8;;;18.5;;
51194;SDS011;37259;49.972;19.850;2024-02-28T05:09:16;33.7;;;21;;
51194;SDS011;37259;49.972;19.850;2024-02-28T05:10:16;33.7;;;21;;
51194;SDS011;37259;49.972;19.850;2024-02-28T05:11:16;33.7;;;21;;
51194;SDS011;37259;49.972;19.850;2024-02-28T05:12:16;33.7;;;21;;
51194;SDS011;37259;49.972;19.850;2024-02-28T05:13:16;33.7;;;21;;
51194;SDS011;37259;49.972;19.850;2024-02-28T05:14:16;33.7;;;21;;
51194;SDS011;37259;49.972;19.850;2024-02-28T05:15:16;33.7;;;21;;
51194;SDS011;37259;49.972;19.850;2024-02-28T05:16:16;33.7;;;21;;
51194;SDS011;37259;49.972;19.850;2024-02-28T05:17:16;33.7;;;21;;
51194;SDS011;37259;49.972;19.850;2024-02-28T05:18:16;33.7;;;21;;
51194;SDS011;37259;49.972;19.850;2024-02-28T05:19:16;33.7;;;21;;
51194;SDS011;37259;49.972;19.850;2024-02-28T05:20:16;33.7;;;21;;
51194;SDS011;37259;49.972;19.850;2024-02-28T05:21:16;33.7;;;21;;
51194;SDS011;37259;49.972;19.850;2024-02-28T05:22:16;33.7;;;21;;
51194;SDS011;37259;49.972;19.850;2024-02-28T05:23:16;33.7;;;21;;
51194;SDS011;37259;49.972;19.850;2024-02-28T05:24:16;33.7;;;21;;
51194;SDS011;37259;49.972;19.850;2024-02-28T05:25:16;33.7;;;21;;
51194;SDS011;37259;49.972;19.850;2024-02-28T05:26:16;33.7;;;21;;
51194;SDS011;37259;49.972;19.850;2024-02-28T05:27:16;33.7;;;21;;
51194;SDS011;37259;49.972;19.850;2024-02-28T05:28:16;33.7;;;21;;
51194;SDS011;37259;49.972;19.850;2024-02-28T05:29:15;33.7;;;21;;
51194;SDS011;37259;49.972;19.850;2024-02-28T05:30:16;33.7;;;21;;
51194;SDS011;37259;49.972;19.850;2024-02-28T05:31:20;33.7;;;21;;
51194;SDS011;37259;49.972;19.850;2024-02-28T05:32:16;33.7;;;21;;
51194;SDS011;37259;49.972;19.850;2024-02-28T05:33:16;33.7;;;21;;
51194;SDS011;37259;49.972;19.850;2024-02-28T05:34:16;33.7;;;21;;
51194;SDS011;37259;49.972;19.850;2024-02-28T05:35:16;33.7;;;21;;
51194;SDS011;37259;49.972;19.850;2024-02-28T05:36:15;33.7;;;21;;
51194;SDS011;37259;49.972;19.850;2024-02-28T05:37:16;33.7;;;21;;
51194;SDS011;37259;49.972;19.850;2024-02-28T05:38:16;33.7;;;21;;
51194;SDS011;37259;49.972;19.850;2024-02-28T05:39:16;32.1;;;19.2;;
51194;SDS011;37259;49.972;19.850;2024-02-28T05:40:16;32.1;;;19.2;;
51194;SDS011;37259;49.972;19.850;2024-02-28T05:41:16;32.1;;;19.2;;
51194;SDS011;37259;49.972;19.850;2024-02-28T05:42:15;32.1;;;19.2;;
51194;SDS011;37259;49.972;19.850;2024-02-28T05:43:15;32.1;;;19.2;;
51194;SDS011;37259;49.972;19.850;2024-02-28T05:44:16;32.1;;;19.2;;
51194;SDS011;37259;49.972;19.850;2024-02-28T05:45:16;32.1;;;19.2;;
51194;SDS011;37259;49.972;19.850;2024-02-28T05:46:16;32.1;;;19.2;;
51194;SDS011;37259;49.972;19.850;2024-02-28T05:47:16;32.1;;;19.2;;
51194;SDS011;37259;49.972;19.850;2024-02-28T05:48:16;32.1;;;19.2;;
51194;SDS011;37259;49.972;19.850;2024-02-28T05:49:16;32.1;;;19.2;;
51194;SDS011;37259;49.972;19.850;2024-02-28T05:50:16;32.1;;;19.2;;
51194;SDS011;37259;49.972;19.850;2024-02-28T05:51:16;32.1;;;19.2;;
51194;SDS011;37259;49.972;19.850;2024-02-28T05:52:16;32.1;;;19.2;;
51194;SDS011;37259;49.972;19.850;2024-02-28T05:53:16;32.1;;;19.2;;
51194;SDS011;37259;49.972;19.850;2024-02-28T05:54:16;32.1;;;19.2;;
51194;SDS011;37259;49.972;19.850;2024-02-28T05:55:16;32.1;;;19.2;;
51194;SDS011;37259;49.972;19.850;2024-02-28T05:56:16;32.1;;;19.2;;
51194;SDS011;37259;49.972;19.850;2024-02-28T05:57:16;32.1;;;19.2;;